AREA preflight bulletin
Updated "live" 28 Jan 2020, 00:02

back to the map




METAR og TAF


ILULISSAT
  AKTUEL BGJN 272350Z 11006KT 9999 OVC027 M14/M20 Q0999 RMK 8SC =
  TAF 9 timer BGJN 272003Z 2720/2803 VRB08KT 9999 BKN025 PROB40 2720/2803 2500 -SN BKN012=

AASIAAT
  AKTUEL BGAA 272350Z AUTO 11010KT 9999NDV -IC OVC034/// M11/M15 Q0998=
  TAF 9 timer BGAA 271855Z 2718/2720 CNL=

UUMMANNAQ/QAARSUT
  AKTUEL BGUQ 272350Z AUTO 24009KT 9999NDV -SHSN OVC020/// M13/M18 Q0998=
  TAF 9 timer BGUQ 272020Z 2720/2721 CNL=

NUUK
  AKTUEL BGGH 272350Z 36006KT 7000 -SHSN SCT016 BKN030 BKN055 M11/M13 Q0999=
  TAF 9 timer BGGH 272257Z 2800/2806 36005KT 9999 BKN060 TEMPO 2800/2806 2500 -SHSN BKN012=

KANGERLUSSUAQ
  AKTUEL BGSF 272350Z AUTO 06007KT 9999NDV -SG FEW027/// BKN039/// OVC048/// M15/M19 Q0999=
  TAF 24 timer BGSF 272256Z 2800/2906 06005KT 9999 BKN040 TEMPO 2800/2804 4000 -SN BKN020 BECMG 2804/2807 SCT050 TEMPO 2807/2906 BKN050=

QEQERTARSUAQ
  AKTUEL BGGN 272350Z AUTO 06011KT //// ///////// M11/M16 Q0998=

QASIGIANNGUIT
  AKTUEL BGCH 272350Z AUTO 07007KT //// ///////// M12/M17 Q0998=


SIGMETS:

SONDRESTROM FIR
  SIGMET BGGL SIGMET U07 VALID 272140/280140 BGSF- BGGL NUUK FIR SEV TURB FCST AT 2140Z WI N7151 W02426 - N7140 W02237 - N6942 W02318 - N6828 W02611 - N6546 W03542 - N6655 W03653 - N7151 W02426 SFC/FL130 STNR WKN=

SNOWTAM:

ICAO
BGAA (AASIAAT)

valid from:
2001271225

Notam_id:
0208

SNOWTAM 0208 A) BGAA B) 01271225 C) 11 F) 48/4/48 G) 1/1/1 H) 5/5/5 N) 4/GOOD R) 4/MEDIUM TO GOOD S) 01271245 T) RUNWAY CONTAMINATION 100 PERCENT 1MM DRY SNOW AND 10 PERCENT 3MM COMPACTED OR ROLLED SNOW AT RWY THRESHOLDS - MEASURED FRICTION COEFFICIENTS 47/45/47 TAP - SWEEPING IN PROGRESS


ICAO
BGUQ (UUMMANNAQ/QAARSUT)

valid from:
2001271320

Notam_id:
0110

SNOWTAM 0110 A) BGUQ B) 01271320 C) 15 F) 8/8/8 G) 4/4/4 H) 5/5/4 N) 48/MEDIUM/GOOD R) 48/MEDIUM T) RUNWAY CONTAMINATION 100 PERCENT 4MM COMPACTED OR ROLLED SNOW - MEASURED FRICTION COEFFICIENTS 53/40/36 TAP


ICAO
BGGH (NUUK)

valid from:
2001272305

Notam_id:
0459

SNOWTAM 0459 A) BGGH B) 01272305 C) 05 F) 48/48/48 G) 2/2/2 H) 5/5/5 N) 4/GOOD R) 8/POOR T) RWY CONTAMINATION 25 PERCENT 1MM DRY SNOW AND 10 PERCENT 1MM COMPACTED SNOW - MEASURED FRICTION COEFFICIENTS 80/80/80 TAP


ICAO
BGSF (KANGERLUSSUAQ)

valid from:
2001272014

Notam_id:
0303

SNOWTAM 0303 A) BGSF B) 01272014 C) 09 F) 48/48/48 G) 6/6/6 H) 3/5/5 N) A B C/48/MEDIUM D/48/POOR R) N E/48/POOR W/487/POOR HELIPAD/48/POOR T) MEASURED FRICTION COEFFICIENTS 35/50/50 TAP, RWY CONTAMINATION 100 PERCENT 1MM DRY SNOW AND 10 PERCENT 5MM COMPACTED OR ROLLED SNOW, SWEEPING IN PROGRESS



NOTAM/SNOWTAM for operationel use has to be confirmed with the
nearest AIS Briefing Office prior to a flight.

ICAO
BGAA (AASIAAT)

FIR
BGGL

Notam_id:
BGB0828/19

valid from:
1912221307

E) AIP GREENLAND AD 2 - BGAA - 1 - 6.1: CAT 5. PPR 3 HR BEFORE LNDG OR TKOF, FOR ALL TRAFIC OVER 10 TONS, MORE THAN 19 PASSENGERS, WITH EXCEPTION OF SCHEDULED AND COMMERCIAL TRAFIC.

valid to:
PERM




ICAO
BGUQ (UUMMANNAQ/QAARSUT)

FIR
BGGL

Notam_id:
BGB0114/20

valid from:
2001241340

E) THR ID LIGHTS RWY 33 U/S.

valid to:
2002281900


Replacing:
BGB0074/20

ICAO
BGUQ (UUMMANNAQ/QAARSUT)

FIR
BGGL

Notam_id:
BGB0787/19

valid from:
1912021450

E) FOLLOWING TEXT CHANGE ADDED TO FOLLOWING SECTIONS: SECTION 4, POINT 1. CARGO-HANDLING FACILITIES TEXT CHANGED TO: FORKLIFT TRUCK. SECTION 6, POINT 1. AD CATEGORY FOR FIRE FIGHTING TEXT CHANGED TO: CAT 5 PPR 3 HR BEFORE LANDING OR DEPARTURE FOR ALL TRAFFIC ABOVE 10 TON AND MORE THAN 19 PASSENGERS EXCEPT FOR SCHEDULED TRAFFIC. POINT 2. RESCUE EQUIPMENT TEXT CHANGED TO: BOATS AND DINGHIES FOR 50 PERSONS.

valid to:
PERM




ICAO
BGUQ (UUMMANNAQ/QAARSUT)

FIR
BGGL

Notam_id:
BGB0122/20

valid from:
2001271300

E) SEA RESCUE OUT OF SERVICE DUE TO ICE.

valid to:
2002101600




ICAO
BGGL (SONDRESTROM FIR)

FIR
BGGL

Notam_id:
BGA0483/19

valid from:
1909271038

E) NUUK INFORMATION FREQ 5526 KHZ PSN 6334N03707W KULUSUK U/S.

valid to:
2004011800




ICAO
BGGL (SONDRESTROM FIR)

FIR
BGGL

Notam_id:
BGA0001/20

valid from:
2001010613

E) CHECKLIST YEAR=2018 0199 YEAR=2019 0483 0584 0601 0608 0609 YEAR=2020 NIL LATEST PUBLICATIONS AIP AIRAC AMDT IFR 008/2019 EFFECTIVE DATE 05 DEC 19 AIP AMDT IFR 003/2018 EFFECTIVE DATE 15 MAR 18 AIP SUP IFR 002/2019 EFFECTIVE DATE 08 NOV 19 AIC IFR A001/2019 EFFECTIVE DATE 17 JAN 19 AIC CHECKLIST AIP IFR A001/2016 A002/2016 A001/2017 A002/2017 A002/2018 A003/2018 A004/2018 A001/2019 AIP VFR NIL AIP MIL NIL SUP CHECKLIST AIP IFR NIL AIP VFR NIL AIP MIL NIL

valid to:
2002010613EST


Replacing:
BGA0594/19

ICAO
BGGL (SONDRESTROM FIR)

FIR
BGGL

Notam_id:
BGB0001/20

valid from:
2001010614

E) CHECKLIST YEAR=2019 0606 0677 0696 0734 0765 0787 0801 0808 0817 0819 0827 0828 0829 0831 0833 0836 YEAR=2020 NIL LATEST PUBLICATIONS AIP AIRAC AMDT IFR 008/2019 EFFECTIVE DATE 05 DEC 19 AIP AMDT IFR 003/2018 EFFECTIVE DATE 15 MAR 18 AIP SUP IFR 002/2019 EFFECTIVE DATE 08 NOV 19 AIC IFR A001/2019 EFFECTIVE DATE 17 JAN 19 AIC CHECKLIST AIP IFR A001/2016 A002/2016 A001/2017 A002/2017 A002/2018 A003/2018 A004/2018 A001/2019 AIP VFR NIL AIP MIL NIL SUP CHECKLIST AIP IFR NIL AIP VFR NIL AIP MIL NIL

valid to:
2002010614EST


Replacing:
BGB0781/19

ICAO
BGGL (SONDRESTROM FIR)

FIR
BGGL

Notam_id:
BGC0001/20

valid from:
2001010614

E) CHECKLIST YEAR=2019 0128 0132 0133 0134 YEAR=2020 NIL LATEST PUBLICATIONS AIP AIRAC AMDT IFR 008/2019 EFFECTIVE DATE 05 DEC 19 AIP AMDT IFR 003/2018 EFFECTIVE DATE 15 MAR 18 AIP SUP IFR 002/2019 EFFECTIVE DATE 08 NOV 19 AIC IFR A001/2019 EFFECTIVE DATE 17 JAN 19 AIC CHECKLIST AIP IFR A001/2016 A002/2016 A001/2017 A002/2017 A002/2018 A003/2018 A004/2018 A001/2019 AIP VFR NIL AIP MIL NIL SUP CHECKLIST AIP IFR NIL AIP VFR NIL AIP MIL NIL

valid to:
2002010614EST


Replacing:
BGC0127/19

ICAO
BGGL (SONDRESTROM FIR)

FIR
BGGL

Notam_id:
BGA0010/20

valid from:
2002270000

E) AIP GREENLAND AIRAC AMDT EFFECTIVE DATE 27 FEB 2020: NIL

valid to:
2003112359




ICAO
BGGL (SONDRESTROM FIR)

FIR
BGGL

Notam_id:
BGA0199/18

valid from:
1805310935

E) GREENLAND AND ADJACENT WATERS ARE CONSIDERED HOSTILE AREAS BY THE CIVIL AVIATION AUTHORITY (TBST). THREE MAJOR REASONS CONTRIBUTE TO DEFINING THE AREA AS HOSTILE: A SAFE FORCED LANDING CANNOT BE ACCOMPLISHED BECAUSE THE SURFACE IS INADEQUATE. THE HELICOPTER OCCUPANTS CANNOT BE ADEQUATELY PROTECTED FROM THE ELEMENTS. SEARCH AND RESCUE RESPONSE/CAPABILITY ARE NOT PROVIDED CONSISTENT WITH ANTICIPATED EXPOSURE.

valid to:
PERM




ICAO
BGGL (SONDRESTROM FIR)

FIR
BGGL

Notam_id:
BGA0601/19

valid from:
2001300000

E) AIP GREENLAND AIRAC AMDT EFFECTIVE DATE 30 JAN 2020: NIL.

valid to:
2002122359




ICAO
BGGH (NUUK)

FIR
BGGL

Notam_id:
BGB0084/20

valid from:
2001211253

E) LIGHTING ON RWY DESIGNATION SIGNS U/S.

valid to:
2002281500EST




ICAO
BGGH (NUUK)

FIR
BGGL

Notam_id:
BGB0819/19

valid from:
1912161442

E) BGGH AFIS FREQ 119.100 MHZ LIMITED RADIOCOVERAGE WITHIN TIZ TO THE NE, E, SE AND S.

valid to:
2003011200EST


Replacing:
BGB0814/19


Copyright Naviair   2003-2016